Dodds Bridge, Indiana
Current Conditions -  °F | °C
As of 10:55 AM on Sunday 21 Dec 2014 (Local Time) from KRSV Reporting Station
Haze Haze  
Wind Chill: 26°   Ceiling: Unl
Heat Index: 33°   Visibility: 5mi
Dew Point: 31°   Wind: 8mph
Humidity: 92%   Direction: 140°SE
Pressure: 30.29"   Gusts: NA
Location:  39.2135°N, 87.5254°W
Report Text: KRSV 211555Z AUTO 14007KT 5SM BR CLR 01/00 A3029 RMK AO2 T00071005
Loading
Personal Weather Stations






























Interactive Weather Map New forecast layout! Learn more

10-Day Weather Forecast

Advertisements
Track Severe Weather on mobile